createdAt,value
2022-11-30T00:02:21.463Z,29.15
2022-11-30T00:04:53.387Z,30.23
2022-11-30T00:07:23.091Z,29.17
2022-11-30T00:09:52.776Z,31.10
2022-11-30T00:12:48.153Z,34.03
2022-11-30T00:15:21.344Z,29.48
2022-11-30T00:17:52.284Z,30.30
2022-11-30T00:20:21.956Z,32.30
2022-11-30T00:22:51.887Z,31.08
2022-11-30T00:25:23.346Z,31.48
2022-11-30T00:27:55.751Z,32.50
2022-11-30T00:30:27.207Z,29.05
2022-11-30T00:33:02.515Z,30.55
2022-11-30T00:35:35.423Z,33.45
2022-11-30T00:38:07.215Z,29.48
2022-11-30T00:40:39.627Z,32.95
2022-11-30T00:43:09.515Z,32.38
2022-11-30T00:45:44.260Z,31.50
2022-11-30T00:48:13.703Z,33.72
2022-11-30T00:50:44.727Z,31.00
2022-11-30T00:53:14.275Z,35.63
2022-11-30T00:55:46.308Z,36.35
2022-11-30T00:58:18.186Z,30.38
2022-11-30T01:00:49.696Z,33.72
2022-11-30T01:03:19.672Z,35.80
2022-11-30T01:05:49.606Z,32.15
2022-11-30T01:08:22.176Z,33.55
2022-11-30T01:10:54.052Z,39.17
2022-11-30T01:13:24.452Z,33.70
2022-11-30T01:15:57.348Z,30.63
2022-11-30T01:18:27.631Z,29.60
2022-11-30T01:20:57.885Z,32.85
2022-11-30T01:23:27.727Z,32.53
2022-11-30T01:25:59.919Z,31.85
2022-11-30T01:28:29.459Z,32.55
2022-11-30T01:31:04.361Z,31.05
2022-11-30T01:33:37.090Z,33.40
2022-11-30T01:36:13.107Z,31.85
2022-11-30T01:38:47.664Z,30.70
2022-11-30T01:41:23.469Z,33.05
2022-11-30T01:43:57.280Z,32.60
2022-11-30T01:46:36.073Z,32.53
2022-11-30T01:49:18.533Z,33.40
2022-11-30T01:51:53.720Z,30.75
2022-11-30T01:54:31.759Z,31.92
2022-11-30T01:57:08.922Z,31.48
2022-11-30T01:59:39.244Z,35.42
2022-11-30T02:02:11.789Z,33.08
2022-11-30T02:04:44.604Z,29.70
2022-11-30T02:08:32.793Z,32.38
2022-11-30T02:11:10.647Z,30.50
2022-11-30T02:14:02.709Z,32.63
2022-11-30T02:16:56.660Z,30.13
2022-11-30T02:20:16.838Z,33.78
2022-11-30T02:23:19.265Z,30.15
2022-11-30T02:26:12.249Z,36.22
2022-11-30T02:29:14.594Z,30.77
2022-11-30T02:31:53.004Z,28.23
2022-11-30T02:34:28.828Z,33.45
2022-11-30T02:37:02.704Z,31.80
2022-11-30T02:39:35.771Z,30.35
2022-11-30T02:42:06.095Z,36.85
2022-11-30T02:44:39.365Z,30.65
2022-11-30T02:47:21.463Z,33.10
2022-11-30T02:49:57.831Z,30.17
2022-11-30T02:52:30.596Z,31.38
2022-11-30T02:55:02.911Z,32.83
2022-11-30T02:57:31.865Z,32.92
2022-11-30T03:00:07.057Z,31.67
2022-11-30T03:02:36.124Z,33.03
2022-11-30T03:05:05.533Z,34.60
2022-11-30T03:07:34.822Z,30.05
2022-11-30T03:10:04.008Z,32.40
2022-11-30T03:12:32.933Z,34.83
2022-11-30T03:15:03.205Z,31.77
2022-11-30T03:17:31.980Z,31.83
2022-11-30T03:20:00.815Z,31.95
2022-11-30T03:22:29.524Z,31.00
2022-11-30T03:24:58.253Z,32.30
2022-11-30T03:27:26.975Z,31.25
2022-11-30T03:29:56.230Z,33.17
2022-11-30T03:32:26.535Z,32.05
2022-11-30T03:34:59.201Z,32.67
2022-11-30T03:37:27.921Z,33.88
2022-11-30T03:39:58.494Z,31.58
2022-11-30T03:42:27.447Z,31.38
2022-11-30T03:44:56.240Z,31.67
2022-11-30T03:47:26.464Z,32.17
2022-11-30T03:49:55.117Z,31.60
2022-11-30T03:52:23.925Z,29.08
2022-11-30T03:54:52.673Z,32.53
2022-11-30T03:57:21.537Z,32.53
2022-11-30T03:59:50.287Z,31.98
2022-11-30T04:02:18.973Z,34.33
2022-11-30T04:04:49.418Z,31.02
2022-11-30T04:07:18.285Z,30.73
2022-11-30T04:09:47.119Z,29.95
2022-11-30T04:12:15.876Z,34.95
2022-11-30T04:14:44.998Z,30.20
2022-11-30T04:17:13.918Z,32.88
2022-11-30T04:19:42.671Z,33.78
2022-11-30T04:22:12.826Z,29.00
2022-11-30T04:24:41.610Z,33.95
2022-11-30T04:27:10.369Z,31.42
2022-11-30T04:29:39.019Z,33.58
2022-11-30T04:32:08.128Z,30.65
2022-11-30T04:34:36.750Z,30.85
2022-11-30T04:37:05.485Z,32.25
2022-11-30T04:39:36.753Z,33.72
2022-11-30T04:42:06.079Z,31.30
2022-11-30T04:44:34.807Z,31.30
2022-11-30T04:47:03.607Z,31.85
2022-11-30T04:49:32.293Z,32.42
2022-11-30T04:52:00.990Z,31.10
2022-11-30T04:54:30.337Z,30.52
2022-11-30T04:57:00.524Z,34.20
2022-11-30T04:59:29.298Z,30.88
2022-11-30T05:01:58.064Z,33.70
2022-11-30T05:04:26.933Z,34.58
2022-11-30T05:06:55.799Z,32.63
2022-11-30T05:09:24.553Z,34.88
2022-11-30T05:11:53.353Z,32.53
2022-11-30T05:14:23.438Z,32.53
2022-11-30T05:16:52.263Z,31.63
2022-11-30T05:19:21.137Z,33.08
2022-11-30T05:21:49.950Z,33.35
2022-11-30T05:24:18.882Z,31.55
2022-11-30T05:26:47.566Z,28.63
2022-11-30T05:29:16.420Z,29.45
2022-11-30T05:31:46.609Z,28.55
2022-11-30T05:34:15.723Z,31.08
2022-11-30T05:36:44.603Z,31.85
2022-11-30T05:39:13.308Z,38.20
2022-11-30T05:41:42.140Z,32.05
2022-11-30T05:44:11.066Z,35.53
2022-11-30T05:46:41.184Z,32.45
2022-11-30T05:49:11.484Z,30.60
2022-11-30T05:51:42.328Z,30.08
2022-11-30T05:54:11.305Z,31.88
2022-11-30T05:56:40.034Z,31.23
2022-11-30T05:59:08.799Z,32.47
2022-11-30T06:01:37.539Z,29.63
2022-11-30T06:05:22.557Z,33.20
2022-11-30T06:07:52.901Z,30.23
2022-11-30T06:10:21.719Z,34.83
2022-11-30T06:12:50.418Z,31.73
2022-11-30T06:15:19.327Z,32.90
2022-11-30T06:17:48.067Z,31.10
2022-11-30T06:20:16.956Z,35.00
2022-11-30T06:22:47.967Z,29.98
2022-11-30T06:25:18.237Z,32.40
2022-11-30T06:27:46.964Z,30.88
2022-11-30T06:30:16.788Z,29.27
2022-11-30T06:32:46.811Z,30.75
2022-11-30T06:35:15.846Z,30.63
2022-11-30T06:37:44.663Z,30.60
2022-11-30T06:40:15.063Z,30.35
2022-11-30T06:42:45.258Z,32.60
2022-11-30T06:45:14.121Z,31.95
2022-11-30T06:47:42.958Z,29.60
2022-11-30T06:50:14.218Z,33.50
2022-11-30T06:52:43.154Z,30.48
2022-11-30T06:55:12.228Z,35.25
2022-11-30T06:57:41.194Z,29.02
2022-11-30T07:00:13.432Z,28.00
2022-11-30T07:02:42.167Z,33.13
2022-11-30T07:05:11.556Z,26.67
2022-11-30T07:07:40.254Z,33.53
2022-11-30T07:10:11.683Z,31.23
2022-11-30T07:12:42.529Z,30.02
2022-11-30T07:15:13.362Z,32.83
2022-11-30T07:17:42.170Z,33.10
2022-11-30T07:20:11.698Z,30.38
2022-11-30T07:22:40.523Z,32.38
2022-11-30T07:25:28.154Z,31.10
2022-11-30T07:27:57.035Z,27.33
2022-11-30T07:30:27.213Z,28.83
2022-11-30T07:32:56.118Z,28.60
2022-11-30T07:35:24.891Z,27.88
2022-11-30T07:37:53.642Z,32.63
2022-11-30T07:40:22.368Z,32.33
2022-11-30T07:42:56.695Z,30.65
2022-11-30T07:45:26.903Z,29.23
2022-11-30T07:47:55.706Z,30.77
2022-11-30T07:50:24.349Z,27.02
2022-11-30T07:52:53.125Z,30.30
2022-11-30T07:55:23.931Z,29.23
2022-11-30T07:57:52.721Z,31.42
2022-11-30T08:00:21.695Z,31.20
2022-11-30T08:02:53.532Z,30.75
2022-11-30T08:05:23.682Z,27.95
2022-11-30T08:07:53.513Z,30.42
2022-11-30T08:10:23.314Z,30.92
2022-11-30T08:12:52.316Z,29.13
2022-11-30T08:15:22.379Z,29.40
2022-11-30T08:17:55.305Z,26.50
2022-11-30T08:20:24.430Z,27.25
2022-11-30T08:22:53.190Z,25.20
2022-11-30T08:25:21.990Z,32.92
2022-11-30T08:27:50.717Z,27.77
2022-11-30T08:30:19.709Z,28.70
2022-11-30T08:32:48.409Z,30.52
2022-11-30T08:35:18.867Z,32.50
2022-11-30T08:37:47.711Z,32.03
2022-11-30T08:40:16.768Z,27.88
2022-11-30T08:42:45.623Z,26.50
2022-11-30T08:45:14.407Z,28.88
2022-11-30T08:47:43.330Z,28.02
2022-11-30T08:50:12.785Z,29.88
2022-11-30T08:52:43.023Z,30.38
2022-11-30T08:55:13.151Z,28.38
2022-11-30T08:57:46.412Z,28.50
2022-11-30T09:00:17.701Z,25.52
2022-11-30T09:02:47.803Z,30.15
2022-11-30T09:05:18.379Z,26.52
2022-11-30T09:07:50.259Z,27.70
2022-11-30T09:10:20.821Z,30.05
2022-11-30T09:12:53.396Z,27.58
2022-11-30T09:15:23.566Z,30.10
2022-11-30T09:17:54.380Z,27.45
2022-11-30T09:20:23.356Z,27.88
2022-11-30T09:22:53.596Z,31.45
2022-11-30T09:25:22.311Z,30.23
2022-11-30T09:27:51.101Z,26.55
2022-11-30T09:30:20.249Z,25.17
2022-11-30T09:32:49.096Z,27.83
2022-11-30T09:35:18.009Z,29.33
2022-11-30T09:37:46.725Z,31.65
2022-11-30T09:40:19.661Z,29.88
2022-11-30T09:42:59.083Z,29.00
2022-11-30T09:45:34.632Z,27.23
2022-11-30T09:48:39.760Z,26.48
2022-11-30T09:51:20.101Z,27.40
2022-11-30T09:53:56.476Z,31.00
2022-11-30T09:56:31.951Z,31.75
2022-11-30T09:59:08.484Z,28.15
2022-11-30T10:01:37.877Z,31.05
2022-11-30T10:04:07.033Z,28.75
2022-11-30T10:06:47.609Z,31.33
2022-11-30T10:09:37.855Z,28.20
2022-11-30T10:12:15.756Z,25.98
2022-11-30T10:15:10.640Z,31.30
2022-11-30T10:17:50.929Z,29.00
2022-11-30T10:20:51.424Z,26.55
2022-11-30T10:23:53.819Z,27.08
2022-11-30T10:26:33.547Z,32.10
2022-11-30T10:29:19.542Z,29.27
2022-11-30T10:31:52.751Z,28.33
2022-11-30T10:34:24.915Z,29.60
2022-11-30T10:37:05.275Z,26.88
2022-11-30T10:39:40.415Z,30.73
2022-11-30T10:42:17.645Z,29.08
2022-11-30T10:45:02.897Z,29.67
2022-11-30T10:47:37.513Z,28.48
2022-11-30T10:50:12.531Z,35.60
2022-11-30T10:52:49.256Z,32.35
2022-11-30T10:55:26.763Z,30.30
2022-11-30T10:58:04.695Z,31.17
2022-11-30T11:00:38.943Z,28.98
2022-11-30T11:03:26.539Z,35.65
2022-11-30T11:06:18.682Z,29.33
2022-11-30T11:08:50.764Z,30.35
2022-11-30T11:11:38.937Z,29.17
2022-11-30T11:14:29.722Z,31.58
2022-11-30T11:17:07.654Z,31.70
2022-11-30T11:19:41.964Z,30.25
2022-11-30T11:22:21.223Z,29.65
2022-11-30T11:24:53.619Z,31.15
2022-11-30T11:27:31.280Z,29.15
2022-11-30T11:30:15.426Z,28.33
2022-11-30T11:33:03.288Z,30.98
2022-11-30T11:35:42.886Z,30.13
2022-11-30T11:38:24.161Z,30.70
2022-11-30T11:41:06.422Z,29.63
2022-11-30T11:43:58.111Z,30.63
2022-11-30T11:46:30.304Z,32.92
2022-11-30T11:49:05.830Z,30.13
2022-11-30T11:51:37.747Z,30.88
2022-11-30T11:54:22.306Z,30.40
2022-11-30T11:56:52.632Z,29.33
2022-11-30T11:59:33.732Z,31.13
2022-11-30T12:02:14.972Z,31.67
2022-11-30T12:04:58.061Z,32.20
2022-11-30T12:07:39.102Z,31.58
2022-11-30T12:13:30.440Z,31.38
2022-11-30T12:16:17.424Z,30.55
2022-11-30T12:18:59.179Z,32.08
2022-11-30T12:21:54.120Z,32.85
2022-11-30T12:25:05.744Z,32.38
2022-11-30T12:27:53.858Z,30.60
2022-11-30T12:30:34.516Z,30.13
2022-11-30T12:33:17.078Z,31.77
2022-11-30T12:36:02.835Z,33.38
2022-11-30T12:38:50.295Z,35.30
2022-11-30T12:41:44.281Z,30.92
2022-11-30T12:44:42.663Z,31.48
2022-11-30T12:47:32.571Z,38.70
2022-11-30T12:50:31.185Z,33.75
2022-11-30T12:53:16.833Z,35.17
2022-11-30T12:56:08.313Z,36.28
2022-11-30T12:58:53.238Z,35.20
2022-11-30T13:01:50.063Z,35.95
2022-11-30T13:04:28.726Z,35.10
2022-11-30T13:07:07.845Z,36.30
2022-11-30T13:09:47.734Z,31.92
2022-11-30T13:12:36.546Z,37.80
2022-11-30T13:15:18.667Z,39.30
2022-11-30T13:17:50.129Z,35.45
2022-11-30T13:20:36.110Z,32.85
2022-11-30T13:23:16.958Z,32.95
2022-11-30T13:26:13.761Z,38.17
2022-11-30T13:29:26.805Z,36.03
2022-11-30T13:32:33.848Z,37.80
2022-11-30T13:35:55.258Z,36.00
2022-11-30T13:38:40.782Z,35.72
2022-11-30T13:41:21.884Z,40.10
2022-11-30T13:43:52.005Z,36.38
2022-11-30T13:46:26.568Z,38.20
2022-11-30T13:49:24.592Z,37.00
2022-11-30T13:52:20.889Z,40.58
2022-11-30T13:54:48.057Z,34.25
2022-11-30T13:57:59.145Z,33.53
2022-11-30T14:01:06.067Z,35.50
2022-11-30T14:06:52.782Z,33.65
2022-11-30T14:10:25.584Z,33.22
2022-11-30T14:13:04.878Z,31.40
2022-11-30T14:15:58.800Z,30.27
2022-11-30T14:18:57.942Z,31.23
2022-11-30T14:21:37.134Z,35.78
2022-11-30T14:24:31.645Z,34.33
2022-11-30T14:27:12.125Z,36.28
2022-11-30T14:29:46.784Z,36.75
2022-11-30T14:32:28.762Z,32.03
2022-11-30T14:35:15.774Z,34.78
2022-11-30T14:37:57.518Z,35.95
2022-11-30T14:40:41.558Z,36.95
2022-11-30T14:43:28.293Z,39.58
2022-11-30T14:46:06.545Z,38.63
2022-11-30T14:48:40.045Z,34.90
2022-11-30T14:51:16.170Z,35.83
2022-11-30T14:54:19.960Z,33.95
2022-11-30T14:56:54.519Z,32.03
2022-11-30T14:59:45.125Z,36.88
2022-11-30T15:02:34.345Z,33.70
2022-11-30T15:05:04.018Z,33.28
2022-11-30T15:07:36.951Z,30.73
2022-11-30T15:10:14.810Z,38.30
2022-11-30T15:12:46.025Z,32.08
2022-11-30T15:15:20.827Z,36.10
2022-11-30T15:17:55.343Z,36.00
2022-11-30T15:20:32.346Z,39.22
2022-11-30T15:23:05.476Z,33.88
2022-11-30T15:25:41.123Z,34.22
2022-11-30T15:28:16.101Z,34.28
2022-11-30T15:30:50.474Z,29.15
2022-11-30T15:33:23.328Z,27.33
2022-11-30T15:38:51.621Z,32.17
2022-11-30T15:41:23.750Z,27.00
2022-11-30T15:43:55.712Z,32.28
2022-11-30T15:46:41.253Z,32.75
2022-11-30T15:49:25.416Z,30.17
2022-11-30T15:52:05.765Z,25.88
2022-11-30T15:54:52.762Z,31.40
2022-11-30T15:57:23.443Z,28.30
2022-11-30T16:00:10.500Z,27.08
2022-11-30T16:02:39.924Z,29.67
2022-11-30T16:05:26.995Z,29.77
2022-11-30T16:08:00.113Z,29.52
2022-11-30T16:10:37.328Z,28.55
2022-11-30T16:13:09.056Z,28.58
2022-11-30T16:15:39.557Z,26.60
2022-11-30T16:18:19.212Z,30.75
2022-11-30T16:20:53.386Z,29.88
2022-11-30T16:23:23.176Z,31.05
2022-11-30T16:25:54.016Z,31.15
2022-11-30T16:28:24.581Z,30.00
2022-11-30T16:30:56.007Z,35.88
2022-11-30T16:33:26.815Z,28.30
2022-11-30T16:36:01.582Z,32.90
2022-11-30T16:38:31.051Z,28.17
2022-11-30T16:41:16.526Z,30.95
2022-11-30T16:43:46.507Z,33.90
2022-11-30T16:46:18.548Z,32.55
2022-11-30T16:48:48.962Z,31.35
2022-11-30T16:51:21.645Z,27.27
2022-11-30T16:53:50.992Z,27.80
2022-11-30T16:56:23.871Z,29.63
2022-11-30T16:58:54.905Z,28.95
2022-11-30T17:01:35.717Z,31.35
2022-11-30T17:04:13.949Z,29.13
2022-11-30T17:06:45.739Z,28.73
2022-11-30T17:09:18.586Z,27.50
2022-11-30T17:11:51.632Z,29.08
2022-11-30T17:14:22.194Z,30.90
2022-11-30T17:16:51.146Z,34.75
2022-11-30T17:19:23.422Z,29.90
2022-11-30T17:21:55.698Z,25.90
2022-11-30T17:24:27.309Z,30.13
2022-11-30T17:26:57.640Z,30.70
2022-11-30T17:29:26.714Z,30.23
2022-11-30T17:31:55.606Z,29.10
2022-11-30T17:34:25.758Z,25.67
2022-11-30T17:36:57.724Z,26.38
2022-11-30T17:39:27.307Z,29.38
2022-11-30T17:41:58.773Z,31.77
2022-11-30T17:44:28.314Z,31.13
2022-11-30T17:46:57.579Z,27.70
2022-11-30T17:49:27.048Z,27.92
2022-11-30T17:51:56.693Z,27.63
2022-11-30T17:54:26.180Z,28.77
2022-11-30T17:57:00.447Z,27.95
2022-11-30T17:59:29.934Z,29.17
2022-11-30T18:01:59.407Z,30.13
2022-11-30T18:04:29.444Z,29.52
2022-11-30T18:06:59.246Z,30.17
2022-11-30T18:09:31.508Z,28.75
2022-11-30T18:12:06.586Z,29.15
2022-11-30T18:14:36.199Z,26.27
2022-11-30T18:17:06.222Z,27.27
2022-11-30T18:19:35.715Z,30.70
2022-11-30T18:22:06.987Z,31.25
2022-11-30T18:24:36.353Z,27.00
2022-11-30T18:27:07.096Z,29.23
2022-11-30T18:29:36.307Z,31.63
2022-11-30T18:32:06.383Z,27.65
2022-11-30T18:34:35.705Z,30.15
2022-11-30T18:37:05.167Z,25.50
2022-11-30T18:39:34.412Z,29.25
2022-11-30T18:42:03.814Z,25.85
2022-11-30T18:44:34.957Z,29.80
2022-11-30T18:47:04.268Z,24.60
2022-11-30T18:49:33.951Z,25.25
2022-11-30T18:52:03.304Z,26.80
2022-11-30T18:54:33.723Z,28.00
2022-11-30T18:57:06.413Z,24.92
2022-11-30T18:59:37.583Z,26.92
2022-11-30T19:02:07.170Z,27.38
2022-11-30T19:04:36.629Z,25.92
2022-11-30T19:07:06.104Z,28.58
2022-11-30T19:09:35.746Z,27.27
2022-11-30T19:12:07.365Z,27.98
2022-11-30T19:14:38.129Z,24.67
2022-11-30T19:17:07.466Z,26.50
2022-11-30T19:19:37.109Z,23.13
2022-11-30T19:22:06.763Z,26.88
2022-11-30T19:24:36.562Z,25.65
2022-11-30T19:27:06.095Z,26.02
2022-11-30T19:29:36.982Z,25.35
2022-11-30T19:32:06.979Z,26.10
2022-11-30T19:34:37.457Z,30.02
2022-11-30T19:37:07.195Z,27.30
2022-11-30T19:39:36.708Z,28.00
2022-11-30T19:42:07.714Z,24.50
2022-11-30T19:44:38.873Z,23.02
2022-11-30T19:47:08.448Z,25.17
2022-11-30T19:49:37.817Z,24.77
2022-11-30T19:52:07.581Z,25.80
2022-11-30T19:54:37.306Z,25.85
2022-11-30T19:57:06.674Z,28.27
2022-11-30T19:59:40.083Z,29.92
2022-11-30T20:02:12.418Z,27.38
2022-11-30T20:04:42.259Z,27.15
2022-11-30T20:07:11.829Z,29.85
2022-11-30T20:09:41.416Z,26.00
2022-11-30T20:12:10.805Z,28.02
2022-11-30T20:14:41.603Z,25.58
2022-11-30T20:17:11.130Z,29.08
2022-11-30T20:19:40.323Z,30.33
2022-11-30T20:22:09.974Z,26.20
2022-11-30T20:24:40.896Z,29.15
2022-11-30T20:27:10.541Z,30.70
2022-11-30T20:29:41.393Z,28.90
2022-11-30T20:32:10.996Z,28.67
2022-11-30T20:34:43.744Z,28.48
2022-11-30T20:37:13.913Z,27.17
2022-11-30T20:39:46.118Z,24.50
2022-11-30T20:42:17.889Z,30.75
2022-11-30T20:44:51.233Z,31.35
2022-11-30T20:47:24.308Z,27.95
2022-11-30T20:49:56.847Z,28.08
2022-11-30T20:52:27.477Z,25.55
2022-11-30T20:54:57.823Z,28.67
2022-11-30T20:57:53.276Z,27.30
2022-11-30T21:00:29.122Z,29.48
2022-11-30T21:03:02.360Z,27.35
2022-11-30T21:05:33.819Z,30.77
2022-11-30T21:08:05.366Z,27.33
2022-11-30T21:10:35.090Z,26.27
2022-11-30T21:13:10.101Z,27.88
2022-11-30T21:15:40.907Z,24.40
2022-11-30T21:18:10.089Z,27.63
2022-11-30T21:20:39.333Z,31.83
2022-11-30T21:23:11.263Z,26.65
2022-11-30T21:25:46.381Z,29.02
2022-11-30T21:28:16.053Z,26.70
2022-11-30T21:30:46.869Z,25.10
2022-11-30T21:33:24.125Z,29.73
2022-11-30T21:35:58.805Z,29.85
2022-11-30T21:39:00.872Z,22.95
2022-11-30T21:41:39.643Z,28.80
2022-11-30T21:44:12.739Z,27.63
2022-11-30T21:46:45.594Z,26.27
2022-11-30T21:49:16.288Z,23.67
2022-11-30T21:51:45.552Z,32.38
2022-11-30T21:54:15.477Z,27.50
2022-11-30T21:56:44.928Z,26.70
2022-11-30T21:59:16.109Z,26.30
2022-11-30T22:01:47.905Z,23.73
2022-11-30T22:04:18.052Z,23.55
2022-11-30T22:06:47.332Z,27.45
2022-11-30T22:09:18.461Z,24.45
2022-11-30T22:11:48.036Z,25.67
2022-11-30T22:14:18.756Z,23.45
2022-11-30T22:16:49.620Z,26.15
2022-11-30T22:19:19.168Z,24.15
2022-11-30T22:21:50.431Z,24.40
2022-11-30T22:24:19.838Z,25.75
2022-11-30T22:26:50.221Z,26.58
2022-11-30T22:29:22.819Z,27.48
2022-11-30T22:31:55.677Z,30.80
2022-11-30T22:34:24.824Z,28.38
2022-11-30T22:36:53.820Z,29.85
2022-11-30T22:39:23.544Z,29.25
2022-11-30T22:41:56.041Z,31.25
2022-11-30T22:44:26.942Z,26.77
2022-11-30T22:46:57.603Z,27.17
2022-11-30T22:49:26.928Z,22.42
2022-11-30T22:51:55.855Z,24.80
2022-11-30T22:54:24.682Z,27.98
2022-11-30T22:56:54.302Z,25.35
2022-11-30T22:59:23.257Z,28.70
2022-11-30T23:01:52.056Z,26.73
2022-11-30T23:04:23.865Z,24.08
2022-11-30T23:06:52.897Z,27.55
2022-11-30T23:09:24.292Z,29.80
2022-11-30T23:11:54.089Z,25.70
2022-11-30T23:14:23.072Z,24.55
2022-11-30T23:16:52.110Z,25.58
2022-11-30T23:19:22.562Z,30.30
2022-11-30T23:21:51.729Z,27.80
2022-11-30T23:24:22.249Z,23.35
2022-11-30T23:26:51.791Z,28.67
2022-11-30T23:29:21.088Z,24.10
2022-11-30T23:31:50.689Z,25.35
2022-11-30T23:34:23.136Z,27.02
2022-11-30T23:36:52.876Z,24.60
2022-11-30T23:39:22.208Z,27.17
2022-11-30T23:41:51.295Z,24.65
2022-11-30T23:44:20.707Z,28.02
2022-11-30T23:46:50.111Z,23.90
2022-11-30T23:49:19.196Z,24.80
2022-11-30T23:51:49.527Z,25.42
2022-11-30T23:54:18.793Z,22.00
2022-11-30T23:56:48.736Z,26.45
2022-11-30T23:59:17.798Z,24.88
